ADDS METAR Data INFO
IDs: Format: Raw Decoded Include TAF

Data at: 0229 UTC 26 Jul 2017

KSHR 260153Z AUTO 20005KT 10SM FEW080 OVC110 17/15 A3015 RMK AO2 RAE23 SLP179 P0000 T01720150
KSHR 260053Z AUTO 19006KT 10SM -RA OVC100 18/16 A3016 RMK AO2 SLP187 P0001 T01780156
KSHR 252353Z AUTO 21005KT 10SM -RA OVC100 18/15 A3017 RMK AO2 SLP194 P0001 60001 T01830150 10244 20183 53003
KSHR 252253Z AUTO 16004KT 10SM -RA OVC100 21/13 A3017 RMK AO2 RAB45 SLP188 P0000 T02060128
KSHR 252153Z AUTO 20005KT 10SM FEW044 SCT075 BKN090 22/09 A3015 RMK AO2 SLP178 T02220094
KSHR 252053Z AUTO 23003KT 10SM SCT100 22/08 A3016 RMK AO2 SLP182 T02220078 53005
KSHR 251953Z AUTO 30007KT 10SM BKN110 22/07 A3015 RMK AO2 SLP180 T02220072
KSHR 251853Z AUTO 30007KT 10SM CLR 23/07 A3015 RMK AO2 SLP177 T02280072
KSHR 251753Z AUTO 31012KT 10SM CLR 24/07 A3014 RMK AO2 SLP173 T02390072 10239 20150 51013
KSHR 251653Z AUTO 30013KT 10SM CLR 22/08 A3013 RMK AO2 SLP166 T02220078
KSHR 251553Z AUTO 31017G23KT 10SM CLR 22/08 A3012 RMK AO2 PK WND 32028/1505 SLP160 T02220078
KSHR 251453Z AUTO 33016G24KT 10SM CLR 22/07 A3010 RMK AO2 PK WND 29027/1410 SLP154 T02170072 53030
KSHR 251353Z AUTO 29017G25KT 10SM CLR 21/08 A3005 RMK AO2 SLP132 T02110083
KSHR 251253Z AUTO 00000KT 10SM CLR 19/11 A3002 RMK AO2 SLP118 T01940111
KSHR 251153Z AUTO 19004KT 10SM CLR 16/10 A3000 RMK AO2 SLP113 T01610100 10211 20150 53014
KSHR 251053Z AUTO 00000KT 10SM CLR 17/10 A2998 RMK AO2 SLP107 T01720100
KSHR 250953Z AUTO 28005KT 10SM CLR 18/09 A2997 RMK AO2 SLP104 T01780094
KSHR 250853Z AUTO 18007KT 10SM CLR 17/10 A2995 RMK AO2 SLP097 T01720100 58006
KSHR 250753Z AUTO 20007KT 10SM CLR 18/10 A2997 RMK AO2 SLP102 T01780100
KSHR 250653Z AUTO 21004KT 10SM CLR 18/11 A2998 RMK AO2 SLP106 T01830106 403610144
KSHR 250553Z AUTO 24004KT 10SM CLR 19/11 A2998 RMK AO2 SLP102 T01940106 10361 20194 51020
KSHR 250453Z AUTO 26006KT 10SM CLR 23/09 A2997 RMK AO2 SLP096 T02330089
KSHR 250353Z AUTO 30009KT 10SM CLR 25/09 A2995 RMK AO2 SLP095 T02500089
KSHR 250253Z AUTO 33005KT 10SM CLR 25/10 A2991 RMK AO2 SLP086 T02500100 53011
KSHR 250153Z AUTO 03006KT 10SM CLR 30/09 A2988 RMK AO2 SLP073 T03000089
KSHR 250053Z AUTO 03009KT 10SM CLR 33/08 A2988 RMK AO2 SLP070 T03330083
KSHR 242353Z AUTO VRB03KT 10SM CLR 36/04 A2988 RMK AO2 SLP072 T03560044 10361 20328 56012
KSHR 242253Z AUTO VRB03KT 10SM CLR 35/04 A2989 RMK AO2 SLP071 T03500044
KSHR 242153Z AUTO VRB04KT 10SM CLR 33/05 A2990 RMK AO2 SLP076 T03330050
KSHR 242053Z AUTO 30009KT 10SM CLR 34/04 A2992 RMK AO2 SLP077 T03440044 56003
KSHR 241953Z AUTO 31011KT 10SM CLR 34/05 A2992 RMK AO2 SLP081 T03440050
KSHR 241853Z AUTO 33015G22KT 10SM CLR 34/04 A2992 RMK AO2 SLP084 T03440039
KSHR 241753Z AUTO 33012G18KT 10SM CLR 34/04 A2993 RMK AO2 SLP085 T03440039 10344 20150 58000
KSHR 241653Z AUTO 35013G19KT 310V010 10SM CLR 33/06 A2993 RMK AO2 SLP087 T03330061
KSHR 241553Z AUTO VRB04KT 10SM CLR 29/11 A2993 RMK AO2 SLP087 T02940111
KSHR 241453Z AUTO 00000KT 10SM CLR 24/10 A2992 RMK AO2 SLP089 T02390100 51007